sensor_id;sensor_type;location;lat;lon;timestamp;P1;durP1;ratioP1;P2;durP2;ratioP2
65996;SDS011;52765;52.258;21.052;2023-03-12T00:01:11;7.35;;;3.80;;
65996;SDS011;52765;52.258;21.052;2023-03-12T00:03:40;8.75;;;4.25;;
65996;SDS011;52765;52.258;21.052;2023-03-12T00:06:06;9.80;;;3.90;;
65996;SDS011;52765;52.258;21.052;2023-03-12T00:08:32;10.05;;;4.15;;
65996;SDS011;52765;52.258;21.052;2023-03-12T00:10:59;11.77;;;4.88;;
65996;SDS011;52765;52.258;21.052;2023-03-12T00:13:24;10.57;;;4.63;;
65996;SDS011;52765;52.258;21.052;2023-03-12T00:15:50;10.85;;;4.90;;
65996;SDS011;52765;52.258;21.052;2023-03-12T00:18:16;8.52;;;4.28;;
65996;SDS011;52765;52.258;21.052;2023-03-12T00:20:42;8.93;;;4.88;;
65996;SDS011;52765;52.258;21.052;2023-03-12T00:23:09;10.18;;;4.70;;
65996;SDS011;52765;52.258;21.052;2023-03-12T00:25:35;9.93;;;4.80;;
65996;SDS011;52765;52.258;21.052;2023-03-12T00:28:00;10.38;;;4.97;;
65996;SDS011;52765;52.258;21.052;2023-03-12T00:30:27;14.13;;;5.53;;
65996;SDS011;52765;52.258;21.052;2023-03-12T00:32:53;12.45;;;5.55;;
65996;SDS011;52765;52.258;21.052;2023-03-12T00:35:18;14.10;;;5.60;;
65996;SDS011;52765;52.258;21.052;2023-03-12T00:37:44;11.20;;;5.60;;
65996;SDS011;52765;52.258;21.052;2023-03-12T00:40:10;12.43;;;5.97;;
65996;SDS011;52765;52.258;21.052;2023-03-12T00:42:36;11.68;;;6.15;;
65996;SDS011;52765;52.258;21.052;2023-03-12T00:45:02;16.70;;;6.65;;
65996;SDS011;52765;52.258;21.052;2023-03-12T00:47:27;14.70;;;5.85;;
65996;SDS011;52765;52.258;21.052;2023-03-12T00:49:52;12.52;;;6.30;;
65996;SDS011;52765;52.258;21.052;2023-03-12T00:52:18;15.63;;;6.43;;
65996;SDS011;52765;52.258;21.052;2023-03-12T00:54:43;15.82;;;7.25;;
65996;SDS011;52765;52.258;21.052;2023-03-12T00:57:09;12.77;;;6.63;;
65996;SDS011;52765;52.258;21.052;2023-03-12T00:59:34;16.35;;;7.38;;
65996;SDS011;52765;52.258;21.052;2023-03-12T01:02:00;14.95;;;7.03;;
65996;SDS011;52765;52.258;21.052;2023-03-12T01:04:25;14.20;;;6.95;;
65996;SDS011;52765;52.258;21.052;2023-03-12T01:06:51;13.40;;;5.93;;
65996;SDS011;52765;52.258;21.052;2023-03-12T01:09:16;14.38;;;7.05;;
65996;SDS011;52765;52.258;21.052;2023-03-12T01:11:42;15.00;;;6.68;;
65996;SDS011;52765;52.258;21.052;2023-03-12T01:14:07;17.10;;;7.22;;
65996;SDS011;52765;52.258;21.052;2023-03-12T01:16:33;13.13;;;7.53;;
65996;SDS011;52765;52.258;21.052;2023-03-12T01:18:59;18.48;;;8.10;;
65996;SDS011;52765;52.258;21.052;2023-03-12T01:21:26;17.15;;;7.45;;
65996;SDS011;52765;52.258;21.052;2023-03-12T01:23:53;15.88;;;7.65;;
65996;SDS011;52765;52.258;21.052;2023-03-12T01:26:19;17.73;;;8.77;;
65996;SDS011;52765;52.258;21.052;2023-03-12T01:28:45;15.20;;;7.43;;
65996;SDS011;52765;52.258;21.052;2023-03-12T01:31:11;15.75;;;7.72;;
65996;SDS011;52765;52.258;21.052;2023-03-12T01:33:39;18.15;;;8.32;;
65996;SDS011;52765;52.258;21.052;2023-03-12T01:36:04;14.82;;;7.53;;
65996;SDS011;52765;52.258;21.052;2023-03-12T01:38:39;14.70;;;7.25;;
65996;SDS011;52765;52.258;21.052;2023-03-12T01:41:05;18.15;;;8.23;;
65996;SDS011;52765;52.258;21.052;2023-03-12T01:43:32;15.43;;;7.50;;
65996;SDS011;52765;52.258;21.052;2023-03-12T01:51:31;15.18;;;7.75;;
65996;SDS011;52765;52.258;21.052;2023-03-12T01:54:01;16.98;;;7.47;;
65996;SDS011;52765;52.258;21.052;2023-03-12T01:56:31;15.65;;;7.28;;
65996;SDS011;52765;52.258;21.052;2023-03-12T01:59:02;14.20;;;7.00;;
65996;SDS011;52765;52.258;21.052;2023-03-12T02:01:31;15.73;;;7.82;;
65996;SDS011;52765;52.258;21.052;2023-03-12T02:03:57;14.93;;;7.93;;
65996;SDS011;52765;52.258;21.052;2023-03-12T02:06:28;14.23;;;7.72;;
65996;SDS011;52765;52.258;21.052;2023-03-12T02:09:00;17.13;;;8.27;;
65996;SDS011;52765;52.258;21.052;2023-03-12T02:11:27;17.90;;;8.23;;
65996;SDS011;52765;52.258;21.052;2023-03-12T02:13:52;15.57;;;7.90;;
65996;SDS011;52765;52.258;21.052;2023-03-12T02:16:18;17.27;;;7.93;;
65996;SDS011;52765;52.258;21.052;2023-03-12T02:18:44;16.63;;;7.78;;
65996;SDS011;52765;52.258;21.052;2023-03-12T02:23:51;17.67;;;7.40;;
65996;SDS011;52765;52.258;21.052;2023-03-12T02:26:25;18.40;;;7.80;;
65996;SDS011;52765;52.258;21.052;2023-03-12T02:28:53;15.00;;;7.53;;
65996;SDS011;52765;52.258;21.052;2023-03-12T02:31:21;17.98;;;7.28;;
65996;SDS011;52765;52.258;21.052;2023-03-12T02:33:49;15.45;;;7.40;;
65996;SDS011;52765;52.258;21.052;2023-03-12T02:36:15;17.15;;;7.60;;
65996;SDS011;52765;52.258;21.052;2023-03-12T02:38:47;14.45;;;7.53;;
65996;SDS011;52765;52.258;21.052;2023-03-12T02:43:48;14.45;;;6.85;;
65996;SDS011;52765;52.258;21.052;2023-03-12T02:46:19;16.20;;;8.10;;
65996;SDS011;52765;52.258;21.052;2023-03-12T02:48:45;21.05;;;7.85;;
65996;SDS011;52765;52.258;21.052;2023-03-12T02:51:11;15.85;;;7.38;;
65996;SDS011;52765;52.258;21.052;2023-03-12T02:53:36;17.33;;;7.20;;
65996;SDS011;52765;52.258;21.052;2023-03-12T02:56:01;11.75;;;6.47;;
65996;SDS011;52765;52.258;21.052;2023-03-12T02:58:27;14.10;;;6.82;;
65996;SDS011;52765;52.258;21.052;2023-03-12T03:00:53;11.63;;;6.55;;
65996;SDS011;52765;52.258;21.052;2023-03-12T03:03:18;11.38;;;6.45;;
65996;SDS011;52765;52.258;21.052;2023-03-12T03:05:43;12.43;;;6.38;;
65996;SDS011;52765;52.258;21.052;2023-03-12T03:08:09;12.82;;;6.28;;
65996;SDS011;52765;52.258;21.052;2023-03-12T03:10:37;12.57;;;7.05;;
65996;SDS011;52765;52.258;21.052;2023-03-12T03:13:02;14.73;;;6.22;;
65996;SDS011;52765;52.258;21.052;2023-03-12T03:15:28;15.35;;;6.13;;
65996;SDS011;52765;52.258;21.052;2023-03-12T03:17:53;11.95;;;6.20;;
65996;SDS011;52765;52.258;21.052;2023-03-12T03:20:19;12.68;;;6.30;;
65996;SDS011;52765;52.258;21.052;2023-03-12T03:22:45;17.50;;;6.43;;
65996;SDS011;52765;52.258;21.052;2023-03-12T03:25:10;15.07;;;6.50;;
65996;SDS011;52765;52.258;21.052;2023-03-12T03:27:36;11.52;;;5.35;;
65996;SDS011;52765;52.258;21.052;2023-03-12T03:30:01;13.70;;;6.70;;
65996;SDS011;52765;52.258;21.052;2023-03-12T03:32:28;9.98;;;5.68;;
65996;SDS011;52765;52.258;21.052;2023-03-12T03:34:53;13.73;;;6.25;;
65996;SDS011;52765;52.258;21.052;2023-03-12T03:37:18;15.20;;;6.50;;
65996;SDS011;52765;52.258;21.052;2023-03-12T03:39:44;15.15;;;6.13;;
65996;SDS011;52765;52.258;21.052;2023-03-12T03:42:09;13.32;;;5.18;;
65996;SDS011;52765;52.258;21.052;2023-03-12T03:44:35;11.93;;;5.70;;
65996;SDS011;52765;52.258;21.052;2023-03-12T03:47:00;13.13;;;6.25;;
65996;SDS011;52765;52.258;21.052;2023-03-12T03:49:26;15.48;;;5.90;;
65996;SDS011;52765;52.258;21.052;2023-03-12T03:51:51;16.55;;;6.72;;
65996;SDS011;52765;52.258;21.052;2023-03-12T03:54:17;12.20;;;5.70;;
65996;SDS011;52765;52.258;21.052;2023-03-12T03:56:43;13.35;;;5.75;;
65996;SDS011;52765;52.258;21.052;2023-03-12T03:59:09;14.63;;;5.95;;
65996;SDS011;52765;52.258;21.052;2023-03-12T04:01:34;10.65;;;5.35;;
65996;SDS011;52765;52.258;21.052;2023-03-12T04:04:01;13.38;;;5.97;;
65996;SDS011;52765;52.258;21.052;2023-03-12T04:06:27;12.38;;;5.75;;
65996;SDS011;52765;52.258;21.052;2023-03-12T04:08:53;12.38;;;5.50;;
65996;SDS011;52765;52.258;21.052;2023-03-12T04:11:20;9.60;;;5.57;;
65996;SDS011;52765;52.258;21.052;2023-03-12T04:13:45;9.98;;;5.60;;
65996;SDS011;52765;52.258;21.052;2023-03-12T04:16:12;9.57;;;5.88;;
65996;SDS011;52765;52.258;21.052;2023-03-12T04:18:38;10.07;;;5.32;;
65996;SDS011;52765;52.258;21.052;2023-03-12T04:21:05;12.38;;;6.07;;
65996;SDS011;52765;52.258;21.052;2023-03-12T04:23:33;8.52;;;5.15;;
65996;SDS011;52765;52.258;21.052;2023-03-12T04:25:59;11.02;;;5.13;;
65996;SDS011;52765;52.258;21.052;2023-03-12T04:28:25;11.45;;;5.50;;
65996;SDS011;52765;52.258;21.052;2023-03-12T04:30:56;9.57;;;5.00;;
65996;SDS011;52765;52.258;21.052;2023-03-12T04:33:27;10.68;;;5.38;;
65996;SDS011;52765;52.258;21.052;2023-03-12T04:35:54;9.55;;;5.35;;
65996;SDS011;52765;52.258;21.052;2023-03-12T04:38:21;9.57;;;4.95;;
65996;SDS011;52765;52.258;21.052;2023-03-12T04:40:55;10.40;;;4.80;;
65996;SDS011;52765;52.258;21.052;2023-03-12T04:43:23;11.23;;;5.10;;
65996;SDS011;52765;52.258;21.052;2023-03-12T04:45:48;12.15;;;5.10;;
65996;SDS011;52765;52.258;21.052;2023-03-12T04:48:14;8.85;;;5.07;;
65996;SDS011;52765;52.258;21.052;2023-03-12T04:50:39;9.35;;;5.10;;
65996;SDS011;52765;52.258;21.052;2023-03-12T04:53:04;8.60;;;4.70;;
65996;SDS011;52765;52.258;21.052;2023-03-12T04:55:30;11.32;;;5.10;;
65996;SDS011;52765;52.258;21.052;2023-03-12T04:57:55;14.13;;;5.13;;
65996;SDS011;52765;52.258;21.052;2023-03-12T05:00:20;10.10;;;4.70;;
65996;SDS011;52765;52.258;21.052;2023-03-12T05:02:46;11.80;;;5.88;;
65996;SDS011;52765;52.258;21.052;2023-03-12T05:05:12;8.43;;;4.57;;
65996;SDS011;52765;52.258;21.052;2023-03-12T05:07:37;10.23;;;4.75;;
65996;SDS011;52765;52.258;21.052;2023-03-12T05:10:03;12.52;;;5.35;;
65996;SDS011;52765;52.258;21.052;2023-03-12T05:12:28;11.15;;;4.78;;
65996;SDS011;52765;52.258;21.052;2023-03-12T05:14:54;13.15;;;6.15;;
65996;SDS011;52765;52.258;21.052;2023-03-12T05:17:19;9.88;;;5.20;;
65996;SDS011;52765;52.258;21.052;2023-03-12T05:19:45;9.40;;;5.63;;
65996;SDS011;52765;52.258;21.052;2023-03-12T05:22:10;9.85;;;5.10;;
65996;SDS011;52765;52.258;21.052;2023-03-12T05:24:39;19.88;;;5.22;;
65996;SDS011;52765;52.258;21.052;2023-03-12T05:27:04;7.93;;;5.13;;
65996;SDS011;52765;52.258;21.052;2023-03-12T05:29:32;11.52;;;5.53;;
65996;SDS011;52765;52.258;21.052;2023-03-12T05:31:59;15.82;;;5.28;;
65996;SDS011;52765;52.258;21.052;2023-03-12T05:34:26;8.68;;;4.68;;
65996;SDS011;52765;52.258;21.052;2023-03-12T05:36:54;9.63;;;4.80;;
65996;SDS011;52765;52.258;21.052;2023-03-12T05:39:23;10.88;;;5.63;;
65996;SDS011;52765;52.258;21.052;2023-03-12T05:41:49;6.80;;;4.85;;
65996;SDS011;52765;52.258;21.052;2023-03-12T05:44:14;9.75;;;4.38;;
65996;SDS011;52765;52.258;21.052;2023-03-12T05:46:41;12.38;;;4.93;;
65996;SDS011;52765;52.258;21.052;2023-03-12T05:49:08;8.77;;;4.55;;
65996;SDS011;52765;52.258;21.052;2023-03-12T05:51:33;13.23;;;4.70;;
65996;SDS011;52765;52.258;21.052;2023-03-12T05:53:59;9.40;;;4.85;;
65996;SDS011;52765;52.258;21.052;2023-03-12T05:56:25;8.63;;;5.32;;
65996;SDS011;52765;52.258;21.052;2023-03-12T05:58:51;8.85;;;4.43;;
65996;SDS011;52765;52.258;21.052;2023-03-12T06:01:17;7.18;;;4.30;;
65996;SDS011;52765;52.258;21.052;2023-03-12T06:03:48;8.95;;;4.05;;
65996;SDS011;52765;52.258;21.052;2023-03-12T06:06:13;14.88;;;5.68;;
65996;SDS011;52765;52.258;21.052;2023-03-12T06:08:39;8.77;;;4.90;;
65996;SDS011;52765;52.258;21.052;2023-03-12T06:11:08;8.70;;;4.40;;
65996;SDS011;52765;52.258;21.052;2023-03-12T06:13:34;6.65;;;4.20;;
65996;SDS011;52765;52.258;21.052;2023-03-12T06:16:07;7.95;;;4.60;;
65996;SDS011;52765;52.258;21.052;2023-03-12T06:18:35;7.82;;;4.15;;
65996;SDS011;52765;52.258;21.052;2023-03-12T06:21:11;7.32;;;3.90;;
65996;SDS011;52765;52.258;21.052;2023-03-12T06:23:42;8.98;;;4.90;;
65996;SDS011;52765;52.258;21.052;2023-03-12T06:26:08;7.22;;;3.70;;
65996;SDS011;52765;52.258;21.052;2023-03-12T06:28:35;8.63;;;4.15;;
65996;SDS011;52765;52.258;21.052;2023-03-12T06:31:01;8.88;;;3.88;;
65996;SDS011;52765;52.258;21.052;2023-03-12T06:33:27;8.30;;;4.07;;
65996;SDS011;52765;52.258;21.052;2023-03-12T06:35:53;8.55;;;3.95;;
65996;SDS011;52765;52.258;21.052;2023-03-12T06:38:20;6.82;;;4.13;;
65996;SDS011;52765;52.258;21.052;2023-03-12T06:40:58;7.95;;;3.78;;
65996;SDS011;52765;52.258;21.052;2023-03-12T06:43:33;8.43;;;4.00;;
65996;SDS011;52765;52.258;21.052;2023-03-12T06:46:00;8.65;;;3.53;;
65996;SDS011;52765;52.258;21.052;2023-03-12T06:48:28;5.18;;;3.17;;
65996;SDS011;52765;52.258;21.052;2023-03-12T06:50:54;7.22;;;3.45;;
65996;SDS011;52765;52.258;21.052;2023-03-12T06:53:20;6.57;;;3.40;;
65996;SDS011;52765;52.258;21.052;2023-03-12T06:55:48;5.55;;;2.72;;
65996;SDS011;52765;52.258;21.052;2023-03-12T06:58:14;6.80;;;3.65;;
65996;SDS011;52765;52.258;21.052;2023-03-12T07:00:40;7.40;;;2.95;;
65996;SDS011;52765;52.258;21.052;2023-03-12T07:03:05;6.25;;;3.28;;
65996;SDS011;52765;52.258;21.052;2023-03-12T07:05:31;7.45;;;3.00;;
65996;SDS011;52765;52.258;21.052;2023-03-12T07:07:57;5.82;;;2.78;;
65996;SDS011;52765;52.258;21.052;2023-03-12T07:10:22;5.43;;;2.80;;
65996;SDS011;52765;52.258;21.052;2023-03-12T07:12:48;5.20;;;2.75;;
65996;SDS011;52765;52.258;21.052;2023-03-12T07:15:13;7.07;;;2.88;;
65996;SDS011;52765;52.258;21.052;2023-03-12T07:17:39;8.32;;;2.72;;
65996;SDS011;52765;52.258;21.052;2023-03-12T07:20:05;3.15;;;2.50;;
65996;SDS011;52765;52.258;21.052;2023-03-12T07:22:31;5.40;;;2.60;;
65996;SDS011;52765;52.258;21.052;2023-03-12T07:24:56;6.03;;;2.40;;
65996;SDS011;52765;52.258;21.052;2023-03-12T07:27:22;9.02;;;2.70;;
65996;SDS011;52765;52.258;21.052;2023-03-12T07:29:47;6.78;;;3.25;;
65996;SDS011;52765;52.258;21.052;2023-03-12T07:32:13;5.60;;;2.72;;
65996;SDS011;52765;52.258;21.052;2023-03-12T07:34:39;7.18;;;2.55;;
65996;SDS011;52765;52.258;21.052;2023-03-12T07:37:04;5.00;;;2.67;;
65996;SDS011;52765;52.258;21.052;2023-03-12T07:39:30;5.10;;;2.55;;
65996;SDS011;52765;52.258;21.052;2023-03-12T07:41:55;3.53;;;2.33;;
65996;SDS011;52765;52.258;21.052;2023-03-12T07:44:21;7.70;;;2.65;;
65996;SDS011;52765;52.258;21.052;2023-03-12T07:46:47;5.18;;;1.85;;
65996;SDS011;52765;52.258;21.052;2023-03-12T07:49:12;4.85;;;2.67;;
65996;SDS011;52765;52.258;21.052;2023-03-12T07:51:38;5.95;;;2.50;;
65996;SDS011;52765;52.258;21.052;2023-03-12T07:54:03;6.22;;;2.13;;
65996;SDS011;52765;52.258;21.052;2023-03-12T07:56:28;11.52;;;2.85;;
65996;SDS011;52765;52.258;21.052;2023-03-12T07:58:54;6.38;;;2.25;;
65996;SDS011;52765;52.258;21.052;2023-03-12T08:01:20;8.35;;;2.55;;
65996;SDS011;52765;52.258;21.052;2023-03-12T08:03:46;5.13;;;2.17;;
65996;SDS011;52765;52.258;21.052;2023-03-12T08:06:12;5.18;;;2.50;;
65996;SDS011;52765;52.258;21.052;2023-03-12T08:08:37;8.25;;;3.03;;
65996;SDS011;52765;52.258;21.052;2023-03-12T08:11:06;5.85;;;2.15;;
65996;SDS011;52765;52.258;21.052;2023-03-12T08:13:32;5.38;;;1.98;;
65996;SDS011;52765;52.258;21.052;2023-03-12T08:15:58;3.45;;;1.58;;
65996;SDS011;52765;52.258;21.052;2023-03-12T08:18:24;3.58;;;1.55;;
65996;SDS011;52765;52.258;21.052;2023-03-12T08:20:50;4.32;;;2.05;;
65996;SDS011;52765;52.258;21.052;2023-03-12T08:23:19;3.75;;;1.45;;
65996;SDS011;52765;52.258;21.052;2023-03-12T08:25:48;3.60;;;1.50;;
65996;SDS011;52765;52.258;21.052;2023-03-12T08:28:14;4.38;;;1.50;;
65996;SDS011;52765;52.258;21.052;2023-03-12T08:30:44;1.90;;;1.40;;
65996;SDS011;52765;52.258;21.052;2023-03-12T08:33:10;3.38;;;1.75;;
65996;SDS011;52765;52.258;21.052;2023-03-12T08:35:36;3.65;;;1.80;;
65996;SDS011;52765;52.258;21.052;2023-03-12T08:38:01;7.43;;;1.67;;
65996;SDS011;52765;52.258;21.052;2023-03-12T08:40:29;5.50;;;1.80;;
65996;SDS011;52765;52.258;21.052;2023-03-12T08:42:54;7.75;;;1.70;;
65996;SDS011;52765;52.258;21.052;2023-03-12T08:45:20;3.47;;;1.75;;
65996;SDS011;52765;52.258;21.052;2023-03-12T08:47:45;3.00;;;1.42;;
65996;SDS011;52765;52.258;21.052;2023-03-12T08:50:11;4.85;;;1.23;;
65996;SDS011;52765;52.258;21.052;2023-03-12T08:52:40;8.32;;;1.48;;
65996;SDS011;52765;52.258;21.052;2023-03-12T08:55:10;4.95;;;1.40;;
65996;SDS011;52765;52.258;21.052;2023-03-12T08:57:36;3.55;;;1.40;;
65996;SDS011;52765;52.258;21.052;2023-03-12T09:00:02;4.63;;;1.45;;
65996;SDS011;52765;52.258;21.052;2023-03-12T09:02:35;4.72;;;1.40;;
65996;SDS011;52765;52.258;21.052;2023-03-12T09:05:01;2.55;;;1.23;;
65996;SDS011;52765;52.258;21.052;2023-03-12T09:07:27;3.47;;;2.35;;
65996;SDS011;52765;52.258;21.052;2023-03-12T09:09:53;2.65;;;0.88;;
65996;SDS011;52765;52.258;21.052;2023-03-12T09:12:19;0.90;;;0.80;;
65996;SDS011;52765;52.258;21.052;2023-03-12T09:14:45;6.50;;;1.33;;
65996;SDS011;52765;52.258;21.052;2023-03-12T09:17:10;2.70;;;1.10;;
65996;SDS011;52765;52.258;21.052;2023-03-12T09:19:35;4.75;;;1.10;;
65996;SDS011;52765;52.258;21.052;2023-03-12T09:22:01;4.18;;;1.02;;
65996;SDS011;52765;52.258;21.052;2023-03-12T09:24:26;4.45;;;1.40;;
65996;SDS011;52765;52.258;21.052;2023-03-12T09:26:54;4.68;;;1.48;;
65996;SDS011;52765;52.258;21.052;2023-03-12T09:29:20;15.27;;;4.95;;
65996;SDS011;52765;52.258;21.052;2023-03-12T09:31:45;5.10;;;1.98;;
65996;SDS011;52765;52.258;21.052;2023-03-12T09:34:11;8.18;;;2.00;;
65996;SDS011;52765;52.258;21.052;2023-03-12T09:36:36;4.07;;;1.50;;
65996;SDS011;52765;52.258;21.052;2023-03-12T09:39:03;4.65;;;1.13;;
65996;SDS011;52765;52.258;21.052;2023-03-12T09:41:29;2.90;;;1.27;;
65996;SDS011;52765;52.258;21.052;2023-03-12T09:44:03;4.70;;;1.23;;
65996;SDS011;52765;52.258;21.052;2023-03-12T09:46:40;3.75;;;1.48;;
65996;SDS011;52765;52.258;21.052;2023-03-12T09:49:18;2.33;;;1.27;;
65996;SDS011;52765;52.258;21.052;2023-03-12T09:51:57;5.40;;;1.50;;
65996;SDS011;52765;52.258;21.052;2023-03-12T09:56:53;3.25;;;1.45;;
65996;SDS011;52765;52.258;21.052;2023-03-12T09:59:24;6.88;;;1.20;;
65996;SDS011;52765;52.258;21.052;2023-03-12T10:01:51;2.05;;;1.10;;
65996;SDS011;52765;52.258;21.052;2023-03-12T10:07:18;7.40;;;1.45;;
65996;SDS011;52765;52.258;21.052;2023-03-12T10:12:53;2.15;;;1.20;;
65996;SDS011;52765;52.258;21.052;2023-03-12T10:26:15;2.63;;;1.35;;
65996;SDS011;52765;52.258;21.052;2023-03-12T10:31:31;4.10;;;1.40;;
65996;SDS011;52765;52.258;21.052;2023-03-12T10:34:22;4.97;;;1.42;;
65996;SDS011;52765;52.258;21.052;2023-03-12T10:39:23;4.63;;;1.25;;
65996;SDS011;52765;52.258;21.052;2023-03-12T10:41:48;4.35;;;0.85;;
65996;SDS011;52765;52.258;21.052;2023-03-12T10:44:22;3.83;;;1.40;;
65996;SDS011;52765;52.258;21.052;2023-03-12T10:47:05;6.07;;;1.60;;
65996;SDS011;52765;52.258;21.052;2023-03-12T10:49:34;2.25;;;1.00;;
65996;SDS011;52765;52.258;21.052;2023-03-12T10:56:56;3.10;;;1.17;;
65996;SDS011;52765;52.258;21.052;2023-03-12T10:59:24;3.92;;;1.48;;
65996;SDS011;52765;52.258;21.052;2023-03-12T11:01:52;2.33;;;1.25;;
65996;SDS011;52765;52.258;21.052;2023-03-12T11:04:20;5.70;;;1.52;;
65996;SDS011;52765;52.258;21.052;2023-03-12T11:09:27;5.80;;;1.45;;
65996;SDS011;52765;52.258;21.052;2023-03-12T11:11:52;6.97;;;1.23;;
65996;SDS011;52765;52.258;21.052;2023-03-12T11:14:22;6.22;;;1.58;;
65996;SDS011;52765;52.258;21.052;2023-03-12T11:16:49;5.28;;;1.13;;
65996;SDS011;52765;52.258;21.052;2023-03-12T11:19:31;4.88;;;0.98;;
65996;SDS011;52765;52.258;21.052;2023-03-12T11:22:00;2.25;;;1.40;;
65996;SDS011;52765;52.258;21.052;2023-03-12T11:24:27;5.38;;;1.25;;
65996;SDS011;52765;52.258;21.052;2023-03-12T11:29:29;3.22;;;1.35;;
65996;SDS011;52765;52.258;21.052;2023-03-12T11:34:55;2.58;;;1.20;;
65996;SDS011;52765;52.258;21.052;2023-03-12T11:40:17;3.53;;;1.67;;
65996;SDS011;52765;52.258;21.052;2023-03-12T11:56:42;5.38;;;1.52;;
65996;SDS011;52765;52.258;21.052;2023-03-12T11:59:16;2.67;;;1.10;;
65996;SDS011;52765;52.258;21.052;2023-03-12T12:10:02;3.40;;;1.35;;
65996;SDS011;52765;52.258;21.052;2023-03-12T12:15:35;1.95;;;1.10;;
65996;SDS011;52765;52.258;21.052;2023-03-12T12:21:18;3.15;;;1.25;;
65996;SDS011;52765;52.258;21.052;2023-03-12T12:24:12;4.45;;;1.10;;
65996;SDS011;52765;52.258;21.052;2023-03-12T12:26:46;4.75;;;1.17;;
65996;SDS011;52765;52.258;21.052;2023-03-12T12:29:30;3.33;;;1.38;;
65996;SDS011;52765;52.258;21.052;2023-03-12T12:35:26;3.03;;;1.33;;
65996;SDS011;52765;52.258;21.052;2023-03-12T12:40:45;4.05;;;1.05;;
65996;SDS011;52765;52.258;21.052;2023-03-12T12:46:13;7.35;;;1.33;;
65996;SDS011;52765;52.258;21.052;2023-03-12T12:48:45;4.37;;;1.20;;
65996;SDS011;52765;52.258;21.052;2023-03-12T12:51:17;4.32;;;1.55;;
65996;SDS011;52765;52.258;21.052;2023-03-12T13:02:14;3.60;;;1.23;;
65996;SDS011;52765;52.258;21.052;2023-03-12T13:04:44;4.20;;;1.77;;
65996;SDS011;52765;52.258;21.052;2023-03-12T13:09:40;5.78;;;1.50;;
65996;SDS011;52765;52.258;21.052;2023-03-12T13:12:20;3.70;;;1.20;;
65996;SDS011;52765;52.258;21.052;2023-03-12T13:14:49;3.03;;;0.93;;
65996;SDS011;52765;52.258;21.052;2023-03-12T13:20:15;2.67;;;1.05;;
65996;SDS011;52765;52.258;21.052;2023-03-12T13:30:50;4.82;;;1.20;;
65996;SDS011;52765;52.258;21.052;2023-03-12T13:33:17;3.20;;;1.20;;
65996;SDS011;52765;52.258;21.052;2023-03-12T13:36:01;3.80;;;1.50;;
65996;SDS011;52765;52.258;21.052;2023-03-12T13:41:41;3.72;;;1.27;;
65996;SDS011;52765;52.258;21.052;2023-03-12T13:54:47;9.00;;;4.10;;
65996;SDS011;52765;52.258;21.052;2023-03-12T13:57:29;6.55;;;1.90;;
65996;SDS011;52765;52.258;21.052;2023-03-12T14:00:02;5.18;;;1.52;;
65996;SDS011;52765;52.258;21.052;2023-03-12T14:02:34;3.42;;;1.35;;
65996;SDS011;52765;52.258;21.052;2023-03-12T14:05:08;4.38;;;1.80;;
65996;SDS011;52765;52.258;21.052;2023-03-12T14:10:18;5.00;;;1.20;;
65996;SDS011;52765;52.258;21.052;2023-03-12T14:15:31;4.80;;;1.38;;
65996;SDS011;52765;52.258;21.052;2023-03-12T14:18:00;5.65;;;1.45;;
65996;SDS011;52765;52.258;21.052;2023-03-12T14:20:38;4.55;;;1.33;;
65996;SDS011;52765;52.258;21.052;2023-03-12T14:23:17;3.13;;;1.40;;
65996;SDS011;52765;52.258;21.052;2023-03-12T14:25:45;4.22;;;1.45;;
65996;SDS011;52765;52.258;21.052;2023-03-12T14:28:13;4.70;;;1.40;;
65996;SDS011;52765;52.258;21.052;2023-03-12T14:33:35;7.25;;;1.75;;
65996;SDS011;52765;52.258;21.052;2023-03-12T14:36:15;3.38;;;1.52;;
65996;SDS011;52765;52.258;21.052;2023-03-12T14:38:45;3.65;;;1.25;;
65996;SDS011;52765;52.258;21.052;2023-03-12T14:41:29;5.07;;;1.60;;
65996;SDS011;52765;52.258;21.052;2023-03-12T14:44:16;6.03;;;1.48;;
65996;SDS011;52765;52.258;21.052;2023-03-12T14:46:54;2.72;;;1.52;;
65996;SDS011;52765;52.258;21.052;2023-03-12T14:49:21;8.98;;;1.58;;
65996;SDS011;52765;52.258;21.052;2023-03-12T14:51:46;5.97;;;1.85;;
65996;SDS011;52765;52.258;21.052;2023-03-12T14:54:19;3.05;;;1.52;;
65996;SDS011;52765;52.258;21.052;2023-03-12T14:56:48;9.73;;;1.90;;
65996;SDS011;52765;52.258;21.052;2023-03-12T14:59:30;5.10;;;1.40;;
65996;SDS011;52765;52.258;21.052;2023-03-12T15:02:00;3.53;;;1.38;;
65996;SDS011;52765;52.258;21.052;2023-03-12T15:04:34;4.20;;;1.20;;
65996;SDS011;52765;52.258;21.052;2023-03-12T15:07:01;3.35;;;1.60;;
65996;SDS011;52765;52.258;21.052;2023-03-12T15:09:30;6.25;;;1.60;;
65996;SDS011;52765;52.258;21.052;2023-03-12T15:11:59;3.88;;;1.45;;
65996;SDS011;52765;52.258;21.052;2023-03-12T15:14:28;6.07;;;1.40;;
65996;SDS011;52765;52.258;21.052;2023-03-12T15:16:57;4.10;;;1.33;;
65996;SDS011;52765;52.258;21.052;2023-03-12T15:19:30;3.30;;;1.38;;
65996;SDS011;52765;52.258;21.052;2023-03-12T15:22:05;2.97;;;1.58;;
65996;SDS011;52765;52.258;21.052;2023-03-12T15:24:36;6.72;;;1.88;;
65996;SDS011;52765;52.258;21.052;2023-03-12T15:29:54;5.55;;;1.67;;
65996;SDS011;52765;52.258;21.052;2023-03-12T15:32:21;4.47;;;1.65;;
65996;SDS011;52765;52.258;21.052;2023-03-12T15:34:51;6.50;;;2.00;;
65996;SDS011;52765;52.258;21.052;2023-03-12T15:40:06;9.60;;;1.85;;
65996;SDS011;52765;52.258;21.052;2023-03-12T15:42:45;7.20;;;1.52;;
65996;SDS011;52765;52.258;21.052;2023-03-12T15:45:18;3.95;;;1.70;;
65996;SDS011;52765;52.258;21.052;2023-03-12T15:47:47;6.47;;;1.58;;
65996;SDS011;52765;52.258;21.052;2023-03-12T15:50:31;6.75;;;1.88;;
65996;SDS011;52765;52.258;21.052;2023-03-12T15:55:41;2.25;;;1.35;;
65996;SDS011;52765;52.258;21.052;2023-03-12T16:01:05;5.10;;;1.73;;
65996;SDS011;52765;52.258;21.052;2023-03-12T16:03:35;6.22;;;1.85;;
65996;SDS011;52765;52.258;21.052;2023-03-12T16:06:04;7.13;;;1.83;;
65996;SDS011;52765;52.258;21.052;2023-03-12T16:08:40;5.32;;;1.55;;
65996;SDS011;52765;52.258;21.052;2023-03-12T16:11:21;6.07;;;1.80;;
65996;SDS011;52765;52.258;21.052;2023-03-12T16:13:49;3.35;;;1.77;;
65996;SDS011;52765;52.258;21.052;2023-03-12T16:16:19;10.30;;;2.47;;
65996;SDS011;52765;52.258;21.052;2023-03-12T16:18:44;8.65;;;2.17;;
65996;SDS011;52765;52.258;21.052;2023-03-12T16:21:10;7.70;;;2.72;;
65996;SDS011;52765;52.258;21.052;2023-03-12T16:23:35;2.97;;;1.50;;
65996;SDS011;52765;52.258;21.052;2023-03-12T16:26:02;4.55;;;1.70;;
65996;SDS011;52765;52.258;21.052;2023-03-12T16:28:29;4.47;;;1.67;;
65996;SDS011;52765;52.258;21.052;2023-03-12T16:30:57;8.13;;;2.05;;
65996;SDS011;52765;52.258;21.052;2023-03-12T16:33:22;10.27;;;3.55;;
65996;SDS011;52765;52.258;21.052;2023-03-12T16:35:49;6.85;;;1.98;;
65996;SDS011;52765;52.258;21.052;2023-03-12T16:38:17;8.95;;;2.05;;
65996;SDS011;52765;52.258;21.052;2023-03-12T16:40:50;5.40;;;1.98;;
65996;SDS011;52765;52.258;21.052;2023-03-12T16:43:21;6.45;;;1.90;;
65996;SDS011;52765;52.258;21.052;2023-03-12T16:45:49;5.20;;;2.30;;
65996;SDS011;52765;52.258;21.052;2023-03-12T16:48:17;6.75;;;1.63;;
65996;SDS011;52765;52.258;21.052;2023-03-12T16:50:45;8.15;;;2.20;;
65996;SDS011;52765;52.258;21.052;2023-03-12T16:53:14;3.85;;;2.00;;
65996;SDS011;52765;52.258;21.052;2023-03-12T16:55:48;5.25;;;2.72;;
65996;SDS011;52765;52.258;21.052;2023-03-12T16:58:22;6.82;;;2.53;;
65996;SDS011;52765;52.258;21.052;2023-03-12T17:00:48;10.02;;;3.10;;